sensor_id;sensor_type;location;lat;lon;timestamp;P1;durP1;ratioP1;P2;durP2;ratioP2
50968;SDS011;36982;51.474;7.228;2022-07-23T00:01:28;10.73;;;8.80;;
50968;SDS011;36982;51.474;7.228;2022-07-23T00:03:54;11.17;;;8.53;;
50968;SDS011;36982;51.474;7.228;2022-07-23T00:06:20;15.40;;;8.97;;
50968;SDS011;36982;51.474;7.228;2022-07-23T00:08:46;13.93;;;9.00;;
50968;SDS011;36982;51.474;7.228;2022-07-23T00:11:12;12.47;;;9.00;;
50968;SDS011;36982;51.474;7.228;2022-07-23T00:13:38;12.67;;;9.10;;
50968;SDS011;36982;51.474;7.228;2022-07-23T00:16:04;11.97;;;8.53;;
50968;SDS011;36982;51.474;7.228;2022-07-23T00:18:30;15.03;;;9.53;;
50968;SDS011;36982;51.474;7.228;2022-07-23T00:20:55;13.87;;;9.20;;
50968;SDS011;36982;51.474;7.228;2022-07-23T00:23:21;11.97;;;8.47;;
50968;SDS011;36982;51.474;7.228;2022-07-23T00:25:47;12.37;;;9.10;;
50968;SDS011;36982;51.474;7.228;2022-07-23T00:28:13;12.07;;;8.70;;
50968;SDS011;36982;51.474;7.228;2022-07-23T00:30:38;11.63;;;8.07;;
50968;SDS011;36982;51.474;7.228;2022-07-23T00:33:06;12.10;;;8.27;;
50968;SDS011;36982;51.474;7.228;2022-07-23T00:35:35;12.57;;;8.83;;
50968;SDS011;36982;51.474;7.228;2022-07-23T00:38:02;13.03;;;9.63;;
50968;SDS011;36982;51.474;7.228;2022-07-23T00:40:29;13.00;;;9.13;;
50968;SDS011;36982;51.474;7.228;2022-07-23T00:42:56;14.03;;;9.23;;
50968;SDS011;36982;51.474;7.228;2022-07-23T00:45:22;17.67;;;11.73;;
50968;SDS011;36982;51.474;7.228;2022-07-23T00:47:48;14.57;;;9.20;;
50968;SDS011;36982;51.474;7.228;2022-07-23T00:50:14;18.73;;;11.70;;
50968;SDS011;36982;51.474;7.228;2022-07-23T00:52:40;17.57;;;11.80;;
50968;SDS011;36982;51.474;7.228;2022-07-23T00:55:06;17.50;;;9.67;;
50968;SDS011;36982;51.474;7.228;2022-07-23T00:57:34;19.00;;;10.70;;
50968;SDS011;36982;51.474;7.228;2022-07-23T01:00:01;17.80;;;10.87;;
50968;SDS011;36982;51.474;7.228;2022-07-23T01:02:28;21.20;;;11.77;;
50968;SDS011;36982;51.474;7.228;2022-07-23T01:04:54;15.27;;;10.27;;
50968;SDS011;36982;51.474;7.228;2022-07-23T01:07:19;16.77;;;10.23;;
50968;SDS011;36982;51.474;7.228;2022-07-23T01:09:45;16.23;;;10.53;;
50968;SDS011;36982;51.474;7.228;2022-07-23T01:12:11;21.30;;;12.17;;
50968;SDS011;36982;51.474;7.228;2022-07-23T01:14:37;16.97;;;11.63;;
50968;SDS011;36982;51.474;7.228;2022-07-23T01:17:03;19.40;;;11.13;;
50968;SDS011;36982;51.474;7.228;2022-07-23T01:19:29;14.23;;;10.60;;
50968;SDS011;36982;51.474;7.228;2022-07-23T01:21:55;15.47;;;10.97;;
50968;SDS011;36982;51.474;7.228;2022-07-23T01:24:23;15.00;;;10.50;;
50968;SDS011;36982;51.474;7.228;2022-07-23T01:26:49;16.73;;;11.27;;
50968;SDS011;36982;51.474;7.228;2022-07-23T01:29:15;17.43;;;11.00;;
50968;SDS011;36982;51.474;7.228;2022-07-23T01:31:41;15.03;;;10.03;;
50968;SDS011;36982;51.474;7.228;2022-07-23T01:34:08;16.07;;;10.87;;
50968;SDS011;36982;51.474;7.228;2022-07-23T01:36:34;13.83;;;10.63;;
50968;SDS011;36982;51.474;7.228;2022-07-23T01:39:00;15.37;;;10.77;;
50968;SDS011;36982;51.474;7.228;2022-07-23T01:41:25;14.73;;;11.13;;
50968;SDS011;36982;51.474;7.228;2022-07-23T01:43:51;15.00;;;12.43;;
50968;SDS011;36982;51.474;7.228;2022-07-23T01:46:17;18.47;;;11.23;;
50968;SDS011;36982;51.474;7.228;2022-07-23T01:48:42;21.17;;;13.33;;
50968;SDS011;36982;51.474;7.228;2022-07-23T01:51:08;16.57;;;11.67;;
50968;SDS011;36982;51.474;7.228;2022-07-23T01:53:34;20.83;;;12.37;;
50968;SDS011;36982;51.474;7.228;2022-07-23T01:56:00;18.47;;;11.70;;
50968;SDS011;36982;51.474;7.228;2022-07-23T01:58:26;19.70;;;12.33;;
50968;SDS011;36982;51.474;7.228;2022-07-23T02:00:52;16.17;;;11.73;;
50968;SDS011;36982;51.474;7.228;2022-07-23T02:03:18;16.40;;;12.17;;
50968;SDS011;36982;51.474;7.228;2022-07-23T02:05:44;18.27;;;12.00;;
50968;SDS011;36982;51.474;7.228;2022-07-23T02:08:09;20.13;;;13.53;;
50968;SDS011;36982;51.474;7.228;2022-07-23T02:10:35;20.20;;;13.50;;
50968;SDS011;36982;51.474;7.228;2022-07-23T02:13:01;19.97;;;13.23;;
50968;SDS011;36982;51.474;7.228;2022-07-23T02:15:26;15.53;;;12.40;;
50968;SDS011;36982;51.474;7.228;2022-07-23T02:17:53;17.93;;;13.30;;
50968;SDS011;36982;51.474;7.228;2022-07-23T02:20:19;15.13;;;11.90;;
50968;SDS011;36982;51.474;7.228;2022-07-23T02:22:45;17.20;;;12.60;;
50968;SDS011;36982;51.474;7.228;2022-07-23T02:25:10;14.90;;;12.00;;
50968;SDS011;36982;51.474;7.228;2022-07-23T02:27:36;16.10;;;11.97;;
50968;SDS011;36982;51.474;7.228;2022-07-23T02:30:02;16.93;;;12.40;;
50968;SDS011;36982;51.474;7.228;2022-07-23T02:32:28;16.70;;;12.50;;
50968;SDS011;36982;51.474;7.228;2022-07-23T02:34:54;17.13;;;12.83;;
50968;SDS011;36982;51.474;7.228;2022-07-23T02:37:20;17.57;;;12.07;;
50968;SDS011;36982;51.474;7.228;2022-07-23T02:39:46;16.40;;;12.43;;
50968;SDS011;36982;51.474;7.228;2022-07-23T02:42:13;23.10;;;15.03;;
50968;SDS011;36982;51.474;7.228;2022-07-23T02:44:39;23.40;;;14.67;;
50968;SDS011;36982;51.474;7.228;2022-07-23T02:47:05;21.73;;;14.23;;
50968;SDS011;36982;51.474;7.228;2022-07-23T02:49:30;21.00;;;13.87;;
50968;SDS011;36982;51.474;7.228;2022-07-23T02:51:56;20.47;;;13.83;;
50968;SDS011;36982;51.474;7.228;2022-07-23T02:54:22;21.73;;;14.37;;
50968;SDS011;36982;51.474;7.228;2022-07-23T02:56:47;17.50;;;13.03;;
50968;SDS011;36982;51.474;7.228;2022-07-23T02:59:13;24.17;;;16.43;;
50968;SDS011;36982;51.474;7.228;2022-07-23T03:01:38;17.00;;;11.80;;
50968;SDS011;36982;51.474;7.228;2022-07-23T03:04:04;21.23;;;13.30;;
50968;SDS011;36982;51.474;7.228;2022-07-23T03:06:30;41.67;;;22.60;;
50968;SDS011;36982;51.474;7.228;2022-07-23T03:08:55;14.57;;;10.73;;
50968;SDS011;36982;51.474;7.228;2022-07-23T03:11:21;15.03;;;11.27;;
50968;SDS011;36982;51.474;7.228;2022-07-23T03:13:46;19.60;;;13.40;;
50968;SDS011;36982;51.474;7.228;2022-07-23T03:16:12;22.47;;;14.20;;
50968;SDS011;36982;51.474;7.228;2022-07-23T03:18:38;18.10;;;12.57;;
50968;SDS011;36982;51.474;7.228;2022-07-23T03:21:03;15.63;;;11.57;;
50968;SDS011;36982;51.474;7.228;2022-07-23T03:23:29;15.67;;;12.50;;
50968;SDS011;36982;51.474;7.228;2022-07-23T03:25:54;15.70;;;11.27;;
50968;SDS011;36982;51.474;7.228;2022-07-23T03:28:20;18.73;;;11.50;;
50968;SDS011;36982;51.474;7.228;2022-07-23T03:30:46;12.67;;;10.23;;
50968;SDS011;36982;51.474;7.228;2022-07-23T03:33:16;14.50;;;11.07;;
50968;SDS011;36982;51.474;7.228;2022-07-23T03:35:43;12.90;;;11.10;;
50968;SDS011;36982;51.474;7.228;2022-07-23T03:38:09;16.00;;;12.10;;
50968;SDS011;36982;51.474;7.228;2022-07-23T03:40:35;14.77;;;11.60;;
50968;SDS011;36982;51.474;7.228;2022-07-23T03:43:01;16.67;;;12.07;;
50968;SDS011;36982;51.474;7.228;2022-07-23T03:45:26;16.37;;;12.03;;
50968;SDS011;36982;51.474;7.228;2022-07-23T03:47:52;15.90;;;11.87;;
50968;SDS011;36982;51.474;7.228;2022-07-23T03:50:18;16.27;;;12.47;;
50968;SDS011;36982;51.474;7.228;2022-07-23T03:52:43;18.63;;;11.97;;
50968;SDS011;36982;51.474;7.228;2022-07-23T03:55:09;16.87;;;11.60;;
50968;SDS011;36982;51.474;7.228;2022-07-23T03:57:35;16.00;;;13.00;;
50968;SDS011;36982;51.474;7.228;2022-07-23T04:00:01;16.37;;;12.23;;
50968;SDS011;36982;51.474;7.228;2022-07-23T04:02:29;16.80;;;11.97;;
50968;SDS011;36982;51.474;7.228;2022-07-23T04:04:54;17.47;;;12.70;;
50968;SDS011;36982;51.474;7.228;2022-07-23T04:07:20;14.37;;;11.33;;
50968;SDS011;36982;51.474;7.228;2022-07-23T04:09:46;16.83;;;12.87;;
50968;SDS011;36982;51.474;7.228;2022-07-23T04:12:12;17.73;;;12.80;;
50968;SDS011;36982;51.474;7.228;2022-07-23T04:14:38;17.50;;;12.90;;
50968;SDS011;36982;51.474;7.228;2022-07-23T04:17:03;15.17;;;12.10;;
50968;SDS011;36982;51.474;7.228;2022-07-23T04:19:29;14.57;;;11.57;;
50968;SDS011;36982;51.474;7.228;2022-07-23T04:21:55;13.03;;;10.97;;
50968;SDS011;36982;51.474;7.228;2022-07-23T04:24:21;16.50;;;11.80;;
50968;SDS011;36982;51.474;7.228;2022-07-23T04:26:47;15.07;;;11.73;;
50968;SDS011;36982;51.474;7.228;2022-07-23T04:29:13;13.93;;;12.17;;
50968;SDS011;36982;51.474;7.228;2022-07-23T04:31:38;15.57;;;12.30;;
50968;SDS011;36982;51.474;7.228;2022-07-23T04:34:04;15.03;;;12.30;;
50968;SDS011;36982;51.474;7.228;2022-07-23T04:36:29;17.83;;;12.73;;
50968;SDS011;36982;51.474;7.228;2022-07-23T04:38:55;15.47;;;12.17;;
50968;SDS011;36982;51.474;7.228;2022-07-23T04:41:21;16.20;;;11.67;;
50968;SDS011;36982;51.474;7.228;2022-07-23T04:43:47;14.37;;;10.73;;
50968;SDS011;36982;51.474;7.228;2022-07-23T04:46:12;18.30;;;11.63;;
50968;SDS011;36982;51.474;7.228;2022-07-23T04:48:38;14.53;;;12.07;;
50968;SDS011;36982;51.474;7.228;2022-07-23T04:51:04;15.50;;;11.60;;
50968;SDS011;36982;51.474;7.228;2022-07-23T04:53:30;14.77;;;11.50;;
50968;SDS011;36982;51.474;7.228;2022-07-23T04:55:56;14.50;;;11.90;;
50968;SDS011;36982;51.474;7.228;2022-07-23T04:58:21;15.17;;;12.63;;
50968;SDS011;36982;51.474;7.228;2022-07-23T05:00:47;16.07;;;11.93;;
50968;SDS011;36982;51.474;7.228;2022-07-23T05:03:13;15.77;;;12.03;;
50968;SDS011;36982;51.474;7.228;2022-07-23T05:05:39;13.07;;;10.90;;
50968;SDS011;36982;51.474;7.228;2022-07-23T05:08:04;15.97;;;11.53;;
50968;SDS011;36982;51.474;7.228;2022-07-23T05:10:30;13.93;;;11.43;;
50968;SDS011;36982;51.474;7.228;2022-07-23T05:12:56;12.73;;;11.40;;
50968;SDS011;36982;51.474;7.228;2022-07-23T05:15:21;17.30;;;11.87;;
50968;SDS011;36982;51.474;7.228;2022-07-23T05:17:47;13.40;;;11.40;;
50968;SDS011;36982;51.474;7.228;2022-07-23T05:20:13;14.20;;;10.77;;
50968;SDS011;36982;51.474;7.228;2022-07-23T05:22:38;13.60;;;11.80;;
50968;SDS011;36982;51.474;7.228;2022-07-23T05:25:05;14.53;;;11.67;;
50968;SDS011;36982;51.474;7.228;2022-07-23T05:27:31;13.90;;;11.37;;
50968;SDS011;36982;51.474;7.228;2022-07-23T05:29:57;12.93;;;11.07;;
50968;SDS011;36982;51.474;7.228;2022-07-23T05:32:22;12.27;;;10.63;;
50968;SDS011;36982;51.474;7.228;2022-07-23T05:34:48;13.03;;;10.93;;
50968;SDS011;36982;51.474;7.228;2022-07-23T05:37:14;12.77;;;10.20;;
50968;SDS011;36982;51.474;7.228;2022-07-23T05:39:40;13.40;;;10.93;;
50968;SDS011;36982;51.474;7.228;2022-07-23T05:42:06;12.82;;;10.85;;
50968;SDS011;36982;51.474;7.228;2022-07-23T05:44:31;14.57;;;10.82;;
50968;SDS011;36982;51.474;7.228;2022-07-23T05:46:57;13.18;;;11.02;;
50968;SDS011;36982;51.474;7.228;2022-07-23T05:49:22;13.35;;;10.93;;
50968;SDS011;36982;51.474;7.228;2022-07-23T05:51:48;14.77;;;11.57;;
50968;SDS011;36982;51.474;7.228;2022-07-23T05:54:14;14.13;;;11.05;;
50968;SDS011;36982;51.474;7.228;2022-07-23T05:56:39;12.00;;;10.25;;
50968;SDS011;36982;51.474;7.228;2022-07-23T05:59:05;15.32;;;11.07;;
50968;SDS011;36982;51.474;7.228;2022-07-23T06:01:31;15.35;;;11.07;;
50968;SDS011;36982;51.474;7.228;2022-07-23T06:03:56;13.77;;;10.52;;
50968;SDS011;36982;51.474;7.228;2022-07-23T06:06:22;15.40;;;11.70;;
50968;SDS011;36982;51.474;7.228;2022-07-23T06:08:48;14.50;;;11.15;;
50968;SDS011;36982;51.474;7.228;2022-07-23T06:11:13;17.27;;;11.38;;
50968;SDS011;36982;51.474;7.228;2022-07-23T06:13:39;13.85;;;11.75;;
50968;SDS011;36982;51.474;7.228;2022-07-23T06:16:05;15.32;;;11.07;;
50968;SDS011;36982;51.474;7.228;2022-07-23T06:18:30;13.20;;;11.65;;
50968;SDS011;36982;51.474;7.228;2022-07-23T06:20:56;15.20;;;10.70;;
50968;SDS011;36982;51.474;7.228;2022-07-23T06:23:21;16.00;;;12.18;;
50968;SDS011;36982;51.474;7.228;2022-07-23T06:25:47;16.80;;;12.25;;
50968;SDS011;36982;51.474;7.228;2022-07-23T06:28:13;15.63;;;11.98;;
50968;SDS011;36982;51.474;7.228;2022-07-23T06:30:38;14.23;;;11.80;;
50968;SDS011;36982;51.474;7.228;2022-07-23T06:33:04;14.95;;;11.77;;
50968;SDS011;36982;51.474;7.228;2022-07-23T06:35:30;19.40;;;12.20;;
50968;SDS011;36982;51.474;7.228;2022-07-23T06:37:55;17.25;;;13.48;;
50968;SDS011;36982;51.474;7.228;2022-07-23T06:40:21;17.58;;;13.05;;
50968;SDS011;36982;51.474;7.228;2022-07-23T06:42:47;16.10;;;12.73;;
50968;SDS011;36982;51.474;7.228;2022-07-23T06:45:12;16.83;;;12.60;;
50968;SDS011;36982;51.474;7.228;2022-07-23T06:47:38;17.40;;;13.25;;
50968;SDS011;36982;51.474;7.228;2022-07-23T06:50:05;19.85;;;13.77;;
50968;SDS011;36982;51.474;7.228;2022-07-23T06:52:31;16.62;;;13.35;;
50968;SDS011;36982;51.474;7.228;2022-07-23T06:54:56;20.73;;;15.27;;
50968;SDS011;36982;51.474;7.228;2022-07-23T06:57:22;21.30;;;14.77;;
50968;SDS011;36982;51.474;7.228;2022-07-23T06:59:50;22.48;;;16.20;;
50968;SDS011;36982;51.474;7.228;2022-07-23T07:02:16;19.98;;;14.82;;
50968;SDS011;36982;51.474;7.228;2022-07-23T07:04:42;21.05;;;15.75;;
50968;SDS011;36982;51.474;7.228;2022-07-23T07:07:07;22.20;;;15.45;;
50968;SDS011;36982;51.474;7.228;2022-07-23T07:09:33;21.55;;;15.43;;
50968;SDS011;36982;51.474;7.228;2022-07-23T07:11:59;20.73;;;15.80;;
50968;SDS011;36982;51.474;7.228;2022-07-23T07:14:24;22.35;;;16.10;;
50968;SDS011;36982;51.474;7.228;2022-07-23T07:16:50;21.05;;;15.90;;
50968;SDS011;36982;51.474;7.228;2022-07-23T07:19:16;24.73;;;16.62;;
50968;SDS011;36982;51.474;7.228;2022-07-23T07:21:41;20.55;;;17.48;;
50968;SDS011;36982;51.474;7.228;2022-07-23T07:24:07;22.75;;;18.65;;
50968;SDS011;36982;51.474;7.228;2022-07-23T07:26:33;20.37;;;17.20;;
50968;SDS011;36982;51.474;7.228;2022-07-23T07:28:58;22.17;;;17.02;;
50968;SDS011;36982;51.474;7.228;2022-07-23T07:31:24;21.42;;;16.55;;
50968;SDS011;36982;51.474;7.228;2022-07-23T07:33:50;20.95;;;17.05;;
50968;SDS011;36982;51.474;7.228;2022-07-23T07:36:16;18.55;;;16.17;;
50968;SDS011;36982;51.474;7.228;2022-07-23T07:38:41;20.98;;;15.65;;
50968;SDS011;36982;51.474;7.228;2022-07-23T07:41:07;20.98;;;14.98;;
50968;SDS011;36982;51.474;7.228;2022-07-23T07:43:35;20.55;;;14.90;;
50968;SDS011;36982;51.474;7.228;2022-07-23T07:46:00;15.18;;;13.25;;
50968;SDS011;36982;51.474;7.228;2022-07-23T07:48:26;16.62;;;14.43;;
50968;SDS011;36982;51.474;7.228;2022-07-23T07:50:52;16.08;;;13.90;;
50968;SDS011;36982;51.474;7.228;2022-07-23T07:53:18;15.85;;;13.52;;
50968;SDS011;36982;51.474;7.228;2022-07-23T07:55:44;19.40;;;15.05;;
50968;SDS011;36982;51.474;7.228;2022-07-23T07:58:10;18.02;;;13.10;;
50968;SDS011;36982;51.474;7.228;2022-07-23T08:00:36;18.40;;;12.98;;
50968;SDS011;36982;51.474;7.228;2022-07-23T08:03:01;16.80;;;12.90;;
50968;SDS011;36982;51.474;7.228;2022-07-23T08:05:28;16.62;;;13.07;;
50968;SDS011;36982;51.474;7.228;2022-07-23T08:07:55;14.70;;;11.68;;
50968;SDS011;36982;51.474;7.228;2022-07-23T08:10:22;15.85;;;11.63;;
50968;SDS011;36982;51.474;7.228;2022-07-23T08:12:49;14.68;;;11.43;;
50968;SDS011;36982;51.474;7.228;2022-07-23T08:15:18;14.38;;;8.93;;
50968;SDS011;36982;51.474;7.228;2022-07-23T08:17:45;10.07;;;8.82;;
50968;SDS011;36982;51.474;7.228;2022-07-23T08:20:12;12.68;;;10.52;;
50968;SDS011;36982;51.474;7.228;2022-07-23T08:25:42;14.02;;;11.20;;
50968;SDS011;36982;51.474;7.228;2022-07-23T08:28:09;13.55;;;12.13;;
50968;SDS011;36982;51.474;7.228;2022-07-23T08:30:36;11.57;;;9.77;;
50968;SDS011;36982;51.474;7.228;2022-07-23T08:33:10;12.88;;;9.27;;
50968;SDS011;36982;51.474;7.228;2022-07-23T08:35:42;10.60;;;9.50;;
50968;SDS011;36982;51.474;7.228;2022-07-23T08:38:14;11.65;;;10.45;;
50968;SDS011;36982;51.474;7.228;2022-07-23T08:40:41;13.38;;;11.43;;
50968;SDS011;36982;51.474;7.228;2022-07-23T08:43:13;15.30;;;13.15;;
50968;SDS011;36982;51.474;7.228;2022-07-23T08:45:42;12.90;;;11.70;;
50968;SDS011;36982;51.474;7.228;2022-07-23T08:48:16;13.88;;;12.57;;
50968;SDS011;36982;51.474;7.228;2022-07-23T08:50:44;14.23;;;12.65;;
50968;SDS011;36982;51.474;7.228;2022-07-23T08:53:11;14.00;;;12.63;;
50968;SDS011;36982;51.474;7.228;2022-07-23T08:55:38;15.90;;;14.45;;
50968;SDS011;36982;51.474;7.228;2022-07-23T08:58:03;15.73;;;14.10;;
50968;SDS011;36982;51.474;7.228;2022-07-23T09:00:29;16.00;;;12.50;;
50968;SDS011;36982;51.474;7.228;2022-07-23T09:02:55;13.05;;;11.77;;
50968;SDS011;36982;51.474;7.228;2022-07-23T09:05:20;15.65;;;14.10;;
50968;SDS011;36982;51.474;7.228;2022-07-23T09:16:15;13.00;;;11.80;;
50968;SDS011;36982;51.474;7.228;2022-07-23T09:18:47;13.48;;;12.07;;
50968;SDS011;36982;51.474;7.228;2022-07-23T09:21:31;12.50;;;11.20;;
50968;SDS011;36982;51.474;7.228;2022-07-23T09:26:47;11.70;;;10.50;;
50968;SDS011;36982;51.474;7.228;2022-07-23T09:31:45;11.80;;;9.57;;
50968;SDS011;36982;51.474;7.228;2022-07-23T09:34:14;9.23;;;8.25;;
50968;SDS011;36982;51.474;7.228;2022-07-23T09:36:40;8.18;;;7.37;;
50968;SDS011;36982;51.474;7.228;2022-07-23T09:39:06;8.75;;;7.93;;
50968;SDS011;36982;51.474;7.228;2022-07-23T09:41:36;7.93;;;7.12;;
50968;SDS011;36982;51.474;7.228;2022-07-23T09:44:11;9.20;;;6.60;;
50968;SDS011;36982;51.474;7.228;2022-07-23T09:46:44;9.20;;;8.27;;
50968;SDS011;36982;51.474;7.228;2022-07-23T09:49:21;8.30;;;7.35;;
50968;SDS011;36982;51.474;7.228;2022-07-23T09:51:55;7.30;;;6.22;;
50968;SDS011;36982;51.474;7.228;2022-07-23T09:54:40;7.28;;;5.97;;
50968;SDS011;36982;51.474;7.228;2022-07-23T09:57:08;9.40;;;7.37;;
50968;SDS011;36982;51.474;7.228;2022-07-23T09:59:37;9.02;;;7.82;;
50968;SDS011;36982;51.474;7.228;2022-07-23T10:02:05;8.10;;;7.07;;
50968;SDS011;36982;51.474;7.228;2022-07-23T10:04:32;6.75;;;5.65;;
50968;SDS011;36982;51.474;7.228;2022-07-23T10:06:59;6.45;;;5.55;;
50968;SDS011;36982;51.474;7.228;2022-07-23T10:09:28;8.32;;;5.47;;
50968;SDS011;36982;51.474;7.228;2022-07-23T10:12:00;6.60;;;5.57;;
50968;SDS011;36982;51.474;7.228;2022-07-23T10:14:42;6.12;;;5.20;;
50968;SDS011;36982;51.474;7.228;2022-07-23T10:17:08;6.43;;;5.50;;
50968;SDS011;36982;51.474;7.228;2022-07-23T10:19:34;7.53;;;6.60;;
50968;SDS011;36982;51.474;7.228;2022-07-23T10:22:07;9.55;;;6.10;;
50968;SDS011;36982;51.474;7.228;2022-07-23T10:35:34;8.35;;;5.78;;
50968;SDS011;36982;51.474;7.228;2022-07-23T10:38:07;5.97;;;5.30;;
50968;SDS011;36982;51.474;7.228;2022-07-23T10:40:51;5.85;;;5.22;;
50968;SDS011;36982;51.474;7.228;2022-07-23T10:43:20;7.00;;;5.72;;
50968;SDS011;36982;51.474;7.228;2022-07-23T10:45:46;8.07;;;5.22;;
50968;SDS011;36982;51.474;7.228;2022-07-23T10:48:19;7.12;;;5.32;;
50968;SDS011;36982;51.474;7.228;2022-07-23T10:56:19;5.57;;;3.78;;
50968;SDS011;36982;51.474;7.228;2022-07-23T10:59:16;7.37;;;4.75;;
50968;SDS011;36982;51.474;7.228;2022-07-23T11:01:41;6.12;;;4.12;;
50968;SDS011;36982;51.474;7.228;2022-07-23T11:04:07;4.68;;;4.12;;
50968;SDS011;36982;51.474;7.228;2022-07-23T11:09:24;5.30;;;4.10;;
50968;SDS011;36982;51.474;7.228;2022-07-23T11:12:12;6.07;;;4.28;;
50968;SDS011;36982;51.474;7.228;2022-07-23T11:17:27;6.25;;;3.95;;
50968;SDS011;36982;51.474;7.228;2022-07-23T11:25:09;6.68;;;4.50;;
50968;SDS011;36982;51.474;7.228;2022-07-23T11:27:45;4.55;;;3.60;;
50968;SDS011;36982;51.474;7.228;2022-07-23T11:32:53;4.60;;;3.85;;
50968;SDS011;36982;51.474;7.228;2022-07-23T11:35:40;6.45;;;4.35;;
50968;SDS011;36982;51.474;7.228;2022-07-23T11:38:08;5.37;;;4.75;;
50968;SDS011;36982;51.474;7.228;2022-07-23T11:40:48;7.37;;;5.15;;
50968;SDS011;36982;51.474;7.228;2022-07-23T11:43:16;7.05;;;4.87;;
50968;SDS011;36982;51.474;7.228;2022-07-23T11:45:44;6.20;;;4.50;;
50968;SDS011;36982;51.474;7.228;2022-07-23T11:48:33;5.53;;;4.47;;
50968;SDS011;36982;51.474;7.228;2022-07-23T11:50:58;5.35;;;4.30;;
50968;SDS011;36982;51.474;7.228;2022-07-23T11:53:24;3.60;;;3.30;;
50968;SDS011;36982;51.474;7.228;2022-07-23T11:56:03;5.37;;;3.40;;
50968;SDS011;36982;51.474;7.228;2022-07-23T11:58:34;5.55;;;3.72;;
50968;SDS011;36982;51.474;7.228;2022-07-23T12:01:00;6.10;;;3.80;;
50968;SDS011;36982;51.474;7.228;2022-07-23T12:03:26;5.20;;;3.95;;
50968;SDS011;36982;51.474;7.228;2022-07-23T12:05:56;5.45;;;3.28;;
50968;SDS011;36982;51.474;7.228;2022-07-23T12:08:23;4.93;;;3.20;;
50968;SDS011;36982;51.474;7.228;2022-07-23T12:10:48;3.92;;;2.42;;
50968;SDS011;36982;51.474;7.228;2022-07-23T12:13:15;3.60;;;2.30;;
50968;SDS011;36982;51.474;7.228;2022-07-23T12:15:47;3.20;;;2.58;;
50968;SDS011;36982;51.474;7.228;2022-07-23T12:18:19;4.43;;;2.87;;
50968;SDS011;36982;51.474;7.228;2022-07-23T12:20:49;5.68;;;3.10;;
50968;SDS011;36982;51.474;7.228;2022-07-23T12:23:17;3.95;;;2.83;;
50968;SDS011;36982;51.474;7.228;2022-07-23T12:25:44;3.05;;;2.47;;
50968;SDS011;36982;51.474;7.228;2022-07-23T12:28:12;3.55;;;2.72;;
50968;SDS011;36982;51.474;7.228;2022-07-23T12:33:08;2.85;;;2.42;;
50968;SDS011;36982;51.474;7.228;2022-07-23T12:38:04;3.60;;;2.72;;
50968;SDS011;36982;51.474;7.228;2022-07-23T12:40:53;3.70;;;2.65;;
50968;SDS011;36982;51.474;7.228;2022-07-23T12:43:25;4.35;;;2.90;;
50968;SDS011;36982;51.474;7.228;2022-07-23T12:48:37;4.20;;;2.92;;
50968;SDS011;36982;51.474;7.228;2022-07-23T12:51:15;3.67;;;2.70;;
50968;SDS011;36982;51.474;7.228;2022-07-23T12:53:46;4.32;;;2.90;;
50968;SDS011;36982;51.474;7.228;2022-07-23T12:58:47;3.08;;;2.37;;
50968;SDS011;36982;51.474;7.228;2022-07-23T13:03:54;4.53;;;2.60;;
50968;SDS011;36982;51.474;7.228;2022-07-23T13:06:30;3.87;;;2.20;;
50968;SDS011;36982;51.474;7.228;2022-07-23T13:08:58;3.55;;;2.70;;
50968;SDS011;36982;51.474;7.228;2022-07-23T13:11:24;4.07;;;2.62;;
50968;SDS011;36982;51.474;7.228;2022-07-23T13:13:49;3.47;;;2.83;;
50968;SDS011;36982;51.474;7.228;2022-07-23T13:16:15;4.45;;;2.22;;
50968;SDS011;36982;51.474;7.228;2022-07-23T13:18:41;3.55;;;2.78;;
50968;SDS011;36982;51.474;7.228;2022-07-23T13:21:07;3.35;;;2.55;;
50968;SDS011;36982;51.474;7.228;2022-07-23T13:23:33;3.33;;;2.30;;
50968;SDS011;36982;51.474;7.228;2022-07-23T13:25:59;3.37;;;2.28;;
50968;SDS011;36982;51.474;7.228;2022-07-23T13:28:25;2.28;;;2.08;;
50968;SDS011;36982;51.474;7.228;2022-07-23T13:30:50;3.05;;;2.10;;
50968;SDS011;36982;51.474;7.228;2022-07-23T13:33:20;3.55;;;2.20;;
50968;SDS011;36982;51.474;7.228;2022-07-23T13:35:48;2.60;;;2.28;;
50968;SDS011;36982;51.474;7.228;2022-07-23T13:38:15;5.80;;;2.50;;
50968;SDS011;36982;51.474;7.228;2022-07-23T13:40:42;5.30;;;2.30;;
50968;SDS011;36982;51.474;7.228;2022-07-23T13:43:10;3.12;;;2.30;;
50968;SDS011;36982;51.474;7.228;2022-07-23T13:45:38;4.12;;;2.20;;
50968;SDS011;36982;51.474;7.228;2022-07-23T13:48:10;3.95;;;2.60;;
50968;SDS011;36982;51.474;7.228;2022-07-23T13:50:37;2.60;;;2.37;;
50968;SDS011;36982;51.474;7.228;2022-07-23T13:53:04;4.53;;;3.20;;
50968;SDS011;36982;51.474;7.228;2022-07-23T13:55:34;2.62;;;2.10;;
50968;SDS011;36982;51.474;7.228;2022-07-23T13:58:03;3.72;;;2.50;;
50968;SDS011;36982;51.474;7.228;2022-07-23T14:00:30;3.22;;;2.37;;
50968;SDS011;36982;51.474;7.228;2022-07-23T14:02:58;2.92;;;2.00;;
50968;SDS011;36982;51.474;7.228;2022-07-23T14:05:24;4.55;;;2.30;;
50968;SDS011;36982;51.474;7.228;2022-07-23T14:07:50;2.78;;;2.22;;
50968;SDS011;36982;51.474;7.228;2022-07-23T14:10:17;3.00;;;2.05;;
50968;SDS011;36982;51.474;7.228;2022-07-23T14:12:44;2.67;;;2.28;;
50968;SDS011;36982;51.474;7.228;2022-07-23T14:15:11;3.22;;;2.28;;
50968;SDS011;36982;51.474;7.228;2022-07-23T14:17:37;2.83;;;2.47;;
50968;SDS011;36982;51.474;7.228;2022-07-23T14:20:05;4.82;;;2.17;;
50968;SDS011;36982;51.474;7.228;2022-07-23T14:22:32;3.03;;;2.22;;
50968;SDS011;36982;51.474;7.228;2022-07-23T14:24:58;2.33;;;2.08;;
50968;SDS011;36982;51.474;7.228;2022-07-23T14:27:24;3.10;;;2.20;;
50968;SDS011;36982;51.474;7.228;2022-07-23T14:29:51;2.50;;;2.30;;
50968;SDS011;36982;51.474;7.228;2022-07-23T14:32:17;3.50;;;2.55;;
50968;SDS011;36982;51.474;7.228;2022-07-23T14:34:42;2.50;;;2.30;;
50968;SDS011;36982;51.474;7.228;2022-07-23T14:37:09;5.37;;;4.22;;
50968;SDS011;36982;51.474;7.228;2022-07-23T14:39:38;2.92;;;2.60;;
50968;SDS011;36982;51.474;7.228;2022-07-23T14:42:04;2.83;;;2.30;;
50968;SDS011;36982;51.474;7.228;2022-07-23T14:44:30;3.33;;;2.75;;
50968;SDS011;36982;51.474;7.228;2022-07-23T14:46:59;2.83;;;2.50;;
50968;SDS011;36982;51.474;7.228;2022-07-23T14:49:26;3.72;;;2.87;;
50968;SDS011;36982;51.474;7.228;2022-07-23T14:51:52;3.87;;;2.25;;
50968;SDS011;36982;51.474;7.228;2022-07-23T14:54:17;2.67;;;2.30;;
50968;SDS011;36982;51.474;7.228;2022-07-23T14:56:44;3.83;;;2.47;;
50968;SDS011;36982;51.474;7.228;2022-07-23T14:59:10;3.05;;;2.55;;
50968;SDS011;36982;51.474;7.228;2022-07-23T15:01:36;2.85;;;2.60;;
50968;SDS011;36982;51.474;7.228;2022-07-23T15:04:02;3.95;;;2.62;;
50968;SDS011;36982;51.474;7.228;2022-07-23T15:06:28;3.60;;;2.50;;
50968;SDS011;36982;51.474;7.228;2022-07-23T15:08:54;3.25;;;2.45;;
50968;SDS011;36982;51.474;7.228;2022-07-23T15:11:20;3.12;;;2.70;;
50968;SDS011;36982;51.474;7.228;2022-07-23T15:13:46;2.75;;;2.53;;
50968;SDS011;36982;51.474;7.228;2022-07-23T15:16:11;3.55;;;2.60;;
50968;SDS011;36982;51.474;7.228;2022-07-23T15:18:37;5.57;;;2.95;;
50968;SDS011;36982;51.474;7.228;2022-07-23T15:21:03;4.50;;;2.70;;
50968;SDS011;36982;51.474;7.228;2022-07-23T15:23:29;3.62;;;3.28;;
50968;SDS011;36982;51.474;7.228;2022-07-23T15:25:55;3.03;;;2.72;;
50968;SDS011;36982;51.474;7.228;2022-07-23T15:28:21;3.03;;;2.55;;
50968;SDS011;36982;51.474;7.228;2022-07-23T15:30:48;3.55;;;2.50;;